createdAt,value
2022-09-07T00:01:47.229Z,2.61
2022-09-07T00:04:13.778Z,2.61
2022-09-07T00:06:40.326Z,2.68
2022-09-07T00:09:06.901Z,2.99
2022-09-07T00:11:33.427Z,2.70
2022-09-07T00:13:59.942Z,2.48
2022-09-07T00:16:30.212Z,2.78
2022-09-07T00:19:00.166Z,2.68
2022-09-07T00:21:26.924Z,2.38
2022-09-07T00:23:54.763Z,2.53
2022-09-07T00:26:24.431Z,2.55
2022-09-07T00:28:51.958Z,2.31
2022-09-07T00:31:22.368Z,2.29
2022-09-07T00:33:51.300Z,2.27
2022-09-07T00:36:20.097Z,2.04
2022-09-07T00:38:47.165Z,2.11
2022-09-07T00:41:15.077Z,2.29
2022-09-07T00:43:48.117Z,2.39
2022-09-07T00:46:16.184Z,2.66
2022-09-07T00:49:08.648Z,2.42
2022-09-07T00:51:52.217Z,2.43
2022-09-07T00:54:26.123Z,2.45
2022-09-07T00:56:53.958Z,2.61
2022-09-07T00:59:32.362Z,2.59
2022-09-07T01:01:59.314Z,2.61
2022-09-07T01:04:26.561Z,2.46
2022-09-07T01:06:55.458Z,2.39
2022-09-07T01:09:25.714Z,2.53
2022-09-07T01:11:58.314Z,2.58
2022-09-07T01:14:40.022Z,2.49
2022-09-07T01:17:27.946Z,2.63
2022-09-07T01:20:41.153Z,2.69
2022-09-07T01:23:41.734Z,2.45
2022-09-07T01:26:14.123Z,2.61
2022-09-07T01:28:41.379Z,2.48
2022-09-07T01:31:23.159Z,2.36
2022-09-07T01:34:16.818Z,2.43
2022-09-07T01:37:06.367Z,2.48
2022-09-07T01:39:51.400Z,2.27
2022-09-07T01:42:28.352Z,2.45
2022-09-07T01:45:05.601Z,2.62
2022-09-07T01:47:43.125Z,2.39
2022-09-07T01:50:21.342Z,2.50
2022-09-07T01:52:57.976Z,2.52
2022-09-07T01:55:36.359Z,2.45
2022-09-07T01:58:18.389Z,2.49
2022-09-07T02:01:02.524Z,2.36
2022-09-07T02:03:42.403Z,2.61
2022-09-07T02:06:18.358Z,2.20
2022-09-07T02:08:56.403Z,2.19
2022-09-07T02:11:39.345Z,2.23
2022-09-07T02:14:15.553Z,2.26
2022-09-07T02:17:04.663Z,1.78
2022-09-07T02:19:40.652Z,1.99
2022-09-07T02:22:16.051Z,2.38
2022-09-07T02:24:52.793Z,2.08
2022-09-07T02:27:35.381Z,2.20
2022-09-07T02:30:02.067Z,2.05
2022-09-07T02:32:28.596Z,2.22
2022-09-07T02:34:55.304Z,2.57
2022-09-07T02:37:24.274Z,2.44
2022-09-07T02:39:50.859Z,2.16
2022-09-07T02:42:17.378Z,2.27
2022-09-07T02:44:44.496Z,2.06
2022-09-07T02:47:34.177Z,2.11
2022-09-07T02:50:37.974Z,2.10
2022-09-07T02:53:38.921Z,1.81
2022-09-07T02:56:46.908Z,1.92
2022-09-07T02:59:19.454Z,1.93
2022-09-07T03:02:14.036Z,2.09
2022-09-07T03:04:49.149Z,2.06
2022-09-07T03:07:35.672Z,2.14
2022-09-07T03:10:05.511Z,2.24
2022-09-07T03:12:44.004Z,2.11
2022-09-07T03:15:12.789Z,2.20
2022-09-07T03:17:41.134Z,2.15
2022-09-07T03:20:08.275Z,2.14
2022-09-07T03:22:34.815Z,2.27
2022-09-07T03:25:01.385Z,2.19
2022-09-07T03:27:27.988Z,2.01
2022-09-07T03:29:54.468Z,2.17
2022-09-07T03:32:20.937Z,2.14
2022-09-07T03:34:47.459Z,2.27
2022-09-07T03:37:14.246Z,2.45
2022-09-07T03:39:40.816Z,2.24
2022-09-07T03:42:07.468Z,2.15
2022-09-07T03:44:34.042Z,2.02
2022-09-07T03:47:00.509Z,2.04
2022-09-07T03:49:26.996Z,1.99
2022-09-07T03:51:53.464Z,1.94
2022-09-07T03:54:19.957Z,1.98
2022-09-07T03:56:46.447Z,1.89
2022-09-07T03:59:12.932Z,1.93
2022-09-07T04:01:39.507Z,2.10
2022-09-07T04:04:06.073Z,2.15
2022-09-07T04:06:32.685Z,2.16
2022-09-07T04:09:05.485Z,1.84
2022-09-07T04:11:32.483Z,1.85
2022-09-07T04:13:59.201Z,1.81
2022-09-07T04:16:27.451Z,1.90
2022-09-07T04:18:54.427Z,2.15
2022-09-07T04:21:23.322Z,1.98
2022-09-07T04:23:50.150Z,1.99
2022-09-07T04:26:18.948Z,2.46
2022-09-07T04:28:46.557Z,2.43
2022-09-07T04:31:18.092Z,2.31
2022-09-07T04:33:46.271Z,2.34
2022-09-07T04:36:13.930Z,2.14
2022-09-07T04:38:40.449Z,2.22
2022-09-07T04:41:13.867Z,2.16
2022-09-07T04:43:41.516Z,2.13
2022-09-07T04:46:12.547Z,2.39
2022-09-07T04:48:39.143Z,2.30
2022-09-07T04:51:07.753Z,2.60
2022-09-07T04:53:36.629Z,2.55
2022-09-07T04:56:04.775Z,2.48
2022-09-07T04:58:31.630Z,2.59
2022-09-07T05:01:03.188Z,2.66
2022-09-07T05:03:31.145Z,2.33
2022-09-07T05:06:00.961Z,2.28
2022-09-07T05:08:27.499Z,2.25
2022-09-07T05:10:55.394Z,2.15
2022-09-07T05:13:21.862Z,2.38
2022-09-07T05:15:48.375Z,2.28
2022-09-07T05:18:15.303Z,2.20
2022-09-07T05:20:41.861Z,2.30
2022-09-07T05:23:08.441Z,2.11
2022-09-07T05:25:42.698Z,2.18
2022-09-07T05:28:09.176Z,2.49
2022-09-07T05:33:22.454Z,2.27
2022-09-07T05:35:58.545Z,1.97
2022-09-07T05:38:25.160Z,1.91
2022-09-07T05:40:52.352Z,2.16
2022-09-07T05:43:18.922Z,2.11
2022-09-07T05:45:45.617Z,1.95
2022-09-07T05:48:12.180Z,2.22
2022-09-07T05:50:38.655Z,2.35
2022-09-07T05:53:05.353Z,2.30
2022-09-07T05:55:31.946Z,2.49
2022-09-07T05:57:58.433Z,2.38
2022-09-07T06:00:25.021Z,2.70
2022-09-07T06:02:51.567Z,2.45
2022-09-07T06:05:18.227Z,2.40
2022-09-07T06:07:47.195Z,2.58
2022-09-07T06:13:00.349Z,2.17
2022-09-07T06:15:26.848Z,2.78
2022-09-07T06:17:53.333Z,2.85
2022-09-07T06:20:20.015Z,2.67
2022-09-07T06:22:46.504Z,2.60
2022-09-07T06:25:13.011Z,2.28
2022-09-07T06:27:39.498Z,2.48
2022-09-07T06:30:06.476Z,2.38
2022-09-07T06:32:44.810Z,2.61
2022-09-07T06:35:12.969Z,2.51
2022-09-07T06:37:39.705Z,2.66
2022-09-07T06:40:07.168Z,2.65
2022-09-07T06:42:33.688Z,2.54
2022-09-07T06:45:00.163Z,2.52
2022-09-07T06:47:26.679Z,2.48
2022-09-07T06:49:53.201Z,2.61
2022-09-07T06:52:19.768Z,2.77
2022-09-07T06:55:01.794Z,3.04
2022-09-07T06:57:28.429Z,2.45
2022-09-07T06:59:54.914Z,2.62
2022-09-07T07:02:21.468Z,2.41
2022-09-07T07:04:47.950Z,2.60
2022-09-07T07:07:15.408Z,2.47
2022-09-07T07:09:42.043Z,2.57
2022-09-07T07:12:09.656Z,2.53
2022-09-07T07:14:37.367Z,2.69
2022-09-07T07:17:06.336Z,2.81
2022-09-07T07:19:32.844Z,2.72
2022-09-07T07:22:14.515Z,2.54
2022-09-07T07:24:45.844Z,2.64
2022-09-07T07:27:12.338Z,2.53
2022-09-07T07:29:38.847Z,2.60
2022-09-07T07:32:05.329Z,2.54
2022-09-07T07:34:31.871Z,2.54
2022-09-07T07:36:58.355Z,2.71
2022-09-07T07:42:11.260Z,3.04
2022-09-07T07:44:37.695Z,2.70
2022-09-07T07:47:04.317Z,2.75
2022-09-07T07:49:30.829Z,2.71
2022-09-07T07:54:44.033Z,2.64
2022-09-07T07:57:10.930Z,2.53
2022-09-07T07:59:38.517Z,2.60
2022-09-07T08:02:07.383Z,2.65
2022-09-07T08:04:34.988Z,2.28
2022-09-07T08:07:06.998Z,2.38
2022-09-07T08:09:36.660Z,2.53
2022-09-07T08:12:03.159Z,2.33
2022-09-07T08:14:29.586Z,2.21
2022-09-07T08:16:56.104Z,2.07
2022-09-07T08:19:22.570Z,2.09
2022-09-07T08:21:49.013Z,2.09
2022-09-07T08:24:15.462Z,2.31
2022-09-07T08:26:41.926Z,2.35
2022-09-07T08:29:08.367Z,2.39
2022-09-07T08:31:35.009Z,2.43
2022-09-07T08:34:01.607Z,2.67
2022-09-07T08:36:28.151Z,2.53
2022-09-07T08:38:54.616Z,2.78
2022-09-07T08:41:53.090Z,2.79
2022-09-07T08:44:38.864Z,2.10
2022-09-07T08:47:17.458Z,1.94
2022-09-07T08:50:03.915Z,2.33
2022-09-07T08:53:12.787Z,2.50
2022-09-07T08:56:03.811Z,2.26
2022-09-07T08:58:49.775Z,2.10
2022-09-07T09:01:42.296Z,2.30
2022-09-07T09:05:16.237Z,2.04
2022-09-07T09:07:25.421Z,2.15
2022-09-07T09:10:41.894Z,2.26
2022-09-07T09:13:18.349Z,2.17
2022-09-07T09:16:08.232Z,2.29
2022-09-07T09:18:48.174Z,2.44
2022-09-07T09:21:18.311Z,2.47
2022-09-07T09:23:50.849Z,2.16
2022-09-07T09:26:33.757Z,2.17
2022-09-07T09:29:13.357Z,2.16
2022-09-07T09:31:39.854Z,2.51
2022-09-07T09:34:10.173Z,2.64
2022-09-07T09:36:54.747Z,2.59
2022-09-07T09:39:39.968Z,2.82
2022-09-07T09:42:24.480Z,2.39
2022-09-07T09:44:51.959Z,2.36
2022-09-07T09:47:31.862Z,2.15
2022-09-07T09:50:04.961Z,2.49
2022-09-07T09:52:45.050Z,2.60
2022-09-07T09:55:35.310Z,2.78
2022-09-07T10:01:31.475Z,2.81
2022-09-07T10:04:25.593Z,2.30
2022-09-07T10:06:58.698Z,2.72
2022-09-07T10:09:39.764Z,3.02
2022-09-07T10:12:22.464Z,2.80
2022-09-07T10:14:48.966Z,3.05
2022-09-07T10:17:30.561Z,2.92
2022-09-07T10:20:01.159Z,2.95
2022-09-07T10:22:35.647Z,2.64
2022-09-07T10:25:24.533Z,2.83
2022-09-07T10:28:04.185Z,2.87
2022-09-07T10:30:42.120Z,2.97
2022-09-07T10:37:07.528Z,3.16
2022-09-07T10:39:36.341Z,3.11
2022-09-07T10:42:32.934Z,3.43
2022-09-07T10:45:05.240Z,2.86
2022-09-07T10:47:49.967Z,2.99
2022-09-07T10:50:32.261Z,2.98
2022-09-07T10:53:42.469Z,3.09
2022-09-07T10:56:31.573Z,2.87
2022-09-07T10:59:17.385Z,3.24
2022-09-07T11:01:53.847Z,3.24
2022-09-07T11:04:50.111Z,3.39
2022-09-07T11:07:48.158Z,3.14
2022-09-07T11:10:23.534Z,3.15
2022-09-07T11:12:57.118Z,3.33
2022-09-07T11:15:40.622Z,3.31
2022-09-07T11:18:23.496Z,3.56
2022-09-07T11:20:55.771Z,3.61
2022-09-07T11:23:50.002Z,3.79
2022-09-07T11:26:24.052Z,3.57
2022-09-07T11:31:55.838Z,3.86
2022-09-07T11:34:45.158Z,3.87
2022-09-07T11:37:33.949Z,4.10
2022-09-07T11:40:07.640Z,4.29
2022-09-07T11:42:44.370Z,3.94
2022-09-07T11:45:38.050Z,4.29
2022-09-07T11:48:19.564Z,3.67
2022-09-07T11:50:57.113Z,3.69
2022-09-07T11:53:37.138Z,3.73
2022-09-07T11:56:17.388Z,3.62
2022-09-07T11:59:02.096Z,3.94
2022-09-07T12:02:04.148Z,4.02
2022-09-07T12:04:56.617Z,4.04
2022-09-07T12:07:52.396Z,4.14
2022-09-07T12:10:57.575Z,4.01
2022-09-07T12:13:42.618Z,3.83
2022-09-07T12:16:28.821Z,3.93
2022-09-07T12:19:20.822Z,4.43
2022-09-07T12:21:54.591Z,4.27
2022-09-07T12:24:38.883Z,4.42
2022-09-07T12:27:31.658Z,4.18
2022-09-07T12:29:58.112Z,3.92
2022-09-07T12:32:55.014Z,4.17
2022-09-07T12:35:28.339Z,3.83
2022-09-07T12:37:56.654Z,4.08
2022-09-07T12:40:29.216Z,4.30
2022-09-07T12:43:13.809Z,4.21
2022-09-07T12:45:40.211Z,4.24
2022-09-07T12:48:15.728Z,4.26
2022-09-07T12:51:59.640Z,4.27
2022-09-07T12:55:09.985Z,4.24
2022-09-07T12:57:55.937Z,4.14
2022-09-07T13:00:29.874Z,4.02
2022-09-07T13:09:37.459Z,4.21
2022-09-07T13:15:43.630Z,4.33
2022-09-07T13:18:39.444Z,4.36
2022-09-07T13:21:08.717Z,4.28
2022-09-07T13:23:37.880Z,4.55
2022-09-07T13:26:10.540Z,4.43
2022-09-07T13:28:58.143Z,4.29
2022-09-07T13:31:42.777Z,4.21
2022-09-07T13:34:45.669Z,4.31
2022-09-07T13:37:21.763Z,4.28
2022-09-07T13:39:50.964Z,4.06
2022-09-07T13:42:23.359Z,4.07
2022-09-07T13:45:01.173Z,4.11
2022-09-07T13:47:46.616Z,4.24
2022-09-07T13:50:26.385Z,4.53
2022-09-07T13:53:11.324Z,4.29
2022-09-07T13:55:49.708Z,3.98
2022-09-07T13:58:25.761Z,3.94
2022-09-07T14:01:06.062Z,3.98
2022-09-07T14:03:57.458Z,4.01
2022-09-07T14:06:27.795Z,4.12
2022-09-07T14:09:03.280Z,4.01
2022-09-07T14:11:43.550Z,4.31
2022-09-07T14:14:16.019Z,4.20
2022-09-07T14:16:47.356Z,3.91
2022-09-07T14:19:21.435Z,4.08
2022-09-07T14:22:17.562Z,4.13
2022-09-07T14:24:54.328Z,3.76
2022-09-07T14:27:41.804Z,3.77
2022-09-07T14:30:28.652Z,3.91
2022-09-07T14:33:11.713Z,3.86
2022-09-07T14:35:40.330Z,4.18
2022-09-07T14:41:14.649Z,3.91
2022-09-07T14:43:55.557Z,4.01
2022-09-07T14:46:31.778Z,4.04
2022-09-07T14:49:04.644Z,4.04
2022-09-07T14:51:36.651Z,4.05
2022-09-07T14:54:06.529Z,4.08
2022-09-07T14:56:35.931Z,4.33
2022-09-07T14:59:02.379Z,4.09
2022-09-07T15:01:44.381Z,4.49
2022-09-07T15:04:18.451Z,4.21
2022-09-07T15:07:01.247Z,4.22
2022-09-07T15:09:38.940Z,4.04
2022-09-07T15:12:38.655Z,4.43
2022-09-07T15:15:10.766Z,4.35
2022-09-07T15:17:44.788Z,4.45
2022-09-07T15:20:36.429Z,4.37
2022-09-07T15:23:05.583Z,4.34
2022-09-07T15:25:33.845Z,4.42
2022-09-07T15:28:00.534Z,4.72
2022-09-07T15:30:27.501Z,4.59
2022-09-07T15:32:57.311Z,4.43
2022-09-07T15:35:24.544Z,4.59
2022-09-07T15:38:59.291Z,4.62
2022-09-07T15:41:10.427Z,4.10
2022-09-07T15:43:33.444Z,4.51
2022-09-07T15:46:00.232Z,4.44
2022-09-07T15:48:26.759Z,4.66
2022-09-07T15:52:04.727Z,4.94
2022-09-07T15:56:40.732Z,4.78
2022-09-07T15:59:07.591Z,4.65
2022-09-07T16:04:23.844Z,4.87
2022-09-07T16:06:50.890Z,4.65
2022-09-07T16:09:21.093Z,4.60
2022-09-07T16:11:50.200Z,4.58
2022-09-07T16:14:17.721Z,4.55
2022-09-07T16:19:34.631Z,4.30
2022-09-07T16:22:01.868Z,4.37
2022-09-07T16:24:28.467Z,4.85
2022-09-07T16:26:55.176Z,5.15
2022-09-07T16:29:21.618Z,4.79
2022-09-07T16:34:34.742Z,4.82
2022-09-07T16:37:01.298Z,4.40
2022-09-07T16:39:27.995Z,4.66
2022-09-07T16:41:55.204Z,5.51
2022-09-07T16:44:22.031Z,5.09
2022-09-07T16:46:48.962Z,5.21
2022-09-07T16:49:15.434Z,5.03
2022-09-07T16:51:42.320Z,5.01
2022-09-07T16:54:12.662Z,5.12
2022-09-07T16:56:39.460Z,5.52
2022-09-07T16:59:08.067Z,5.24
2022-09-07T17:01:36.090Z,4.67
2022-09-07T17:04:08.003Z,5.04
2022-09-07T17:06:37.102Z,4.84
2022-09-07T17:09:03.907Z,5.30
2022-09-07T17:11:33.134Z,4.88
2022-09-07T17:14:00.503Z,4.99
2022-09-07T17:16:30.104Z,4.92
2022-09-07T17:21:44.419Z,5.25
2022-09-07T17:24:12.611Z,5.60
2022-09-07T17:26:41.876Z,5.95
2022-09-07T17:29:09.058Z,5.55
2022-09-07T17:34:24.062Z,5.61
2022-09-07T17:36:51.572Z,5.58
2022-09-07T17:39:19.368Z,5.66
2022-09-07T17:41:50.345Z,5.74
2022-09-07T17:44:17.924Z,5.72
2022-09-07T17:46:44.377Z,5.65
2022-09-07T17:49:11.383Z,5.57
2022-09-07T17:51:37.846Z,5.72
2022-09-07T17:54:10.866Z,5.55
2022-09-07T17:56:39.783Z,5.44
2022-09-07T18:01:52.946Z,5.50
2022-09-07T18:04:19.847Z,5.44
2022-09-07T18:06:46.434Z,5.74
2022-09-07T18:09:13.071Z,5.27
2022-09-07T18:11:48.658Z,5.34
2022-09-07T18:14:16.705Z,5.77
2022-09-07T18:16:45.452Z,5.88
2022-09-07T18:19:13.569Z,5.81
2022-09-07T18:21:42.382Z,6.07
2022-09-07T18:24:14.769Z,5.76
2022-09-07T18:26:41.273Z,5.42
2022-09-07T18:29:25.966Z,5.13
2022-09-07T18:31:54.226Z,6.23
2022-09-07T18:34:20.835Z,5.64
2022-09-07T18:36:47.632Z,5.41
2022-09-07T18:39:14.079Z,5.23
2022-09-07T18:41:40.827Z,5.52
2022-09-07T18:45:27.263Z,5.12
2022-09-07T18:46:54.764Z,5.26
2022-09-07T18:49:21.204Z,5.30
2022-09-07T18:54:34.109Z,5.84
2022-09-07T18:57:00.550Z,5.73
2022-09-07T18:59:27.019Z,5.50
2022-09-07T19:01:53.939Z,5.36
2022-09-07T19:04:21.148Z,4.48
2022-09-07T19:06:47.993Z,2.49
2022-09-07T19:09:14.812Z,2.74
2022-09-07T19:11:42.257Z,2.04
2022-09-07T19:14:08.806Z,1.60
2022-09-07T19:16:36.107Z,0.97
2022-09-07T19:19:05.679Z,1.13
2022-09-07T19:21:47.368Z,1.08
2022-09-07T19:24:17.257Z,1.77
2022-09-07T19:26:48.882Z,2.13
2022-09-07T19:29:17.834Z,1.94
2022-09-07T19:31:46.813Z,1.98
2022-09-07T19:34:13.336Z,1.99
2022-09-07T19:36:39.946Z,1.92
2022-09-07T19:39:06.761Z,1.74
2022-09-07T19:41:33.261Z,1.90
2022-09-07T19:43:59.726Z,2.16
2022-09-07T19:46:26.302Z,1.89
2022-09-07T19:48:52.837Z,2.10
2022-09-07T19:51:19.353Z,2.22
2022-09-07T19:53:47.277Z,2.72
2022-09-07T19:56:17.261Z,2.12
2022-09-07T19:58:45.180Z,1.93
2022-09-07T20:04:18.937Z,1.72
2022-09-07T20:06:50.379Z,1.76
2022-09-07T20:09:19.387Z,1.76
2022-09-07T20:11:47.702Z,2.01
2022-09-07T20:14:15.763Z,1.97
2022-09-07T20:16:43.204Z,1.88
2022-09-07T20:19:15.241Z,1.98
2022-09-07T20:21:42.379Z,1.89
2022-09-07T20:24:11.779Z,2.12
2022-09-07T20:29:38.834Z,1.76
2022-09-07T20:32:05.476Z,1.99
2022-09-07T20:34:31.990Z,1.84
2022-09-07T20:36:58.671Z,1.82
2022-09-07T20:39:25.282Z,1.98
2022-09-07T20:41:51.736Z,1.82
2022-09-07T20:44:18.336Z,1.84
2022-09-07T20:46:44.880Z,1.81
2022-09-07T20:49:11.555Z,1.95
2022-09-07T20:51:38.150Z,1.95
2022-09-07T20:54:04.783Z,1.89
2022-09-07T20:56:31.338Z,1.92
2022-09-07T20:59:00.300Z,1.96
2022-09-07T21:01:28.294Z,1.74
2022-09-07T21:03:56.961Z,1.92
2022-09-07T21:06:25.477Z,1.91
2022-09-07T21:08:52.306Z,1.81
2022-09-07T21:11:21.827Z,1.64
2022-09-07T21:13:55.361Z,1.64
2022-09-07T21:16:21.965Z,1.80
2022-09-07T21:18:52.509Z,1.62
2022-09-07T21:21:20.358Z,1.88
2022-09-07T21:23:48.019Z,1.96
2022-09-07T21:26:15.061Z,1.53
2022-09-07T21:28:41.635Z,1.70
2022-09-07T21:31:09.452Z,1.66
2022-09-07T21:33:37.068Z,1.58
2022-09-07T21:36:09.958Z,1.62
2022-09-07T21:38:38.339Z,1.65
2022-09-07T21:41:10.588Z,1.62
2022-09-07T21:43:37.367Z,1.47
2022-09-07T21:46:09.989Z,1.61
2022-09-07T21:48:36.735Z,1.66
2022-09-07T21:51:04.460Z,1.58
2022-09-07T21:53:32.135Z,2.04
2022-09-07T21:56:03.557Z,1.67
2022-09-07T21:58:31.151Z,2.07
2022-09-07T22:00:58.919Z,2.16
2022-09-07T22:03:25.399Z,2.39
2022-09-07T22:05:52.584Z,2.04
2022-09-07T22:08:19.438Z,1.98
2022-09-07T22:10:46.819Z,2.35
2022-09-07T22:13:13.306Z,2.10
2022-09-07T22:15:40.920Z,2.32
2022-09-07T22:18:11.880Z,1.91
2022-09-07T22:20:39.329Z,1.96
2022-09-07T22:23:05.931Z,2.01
2022-09-07T22:25:33.553Z,1.74
2022-09-07T22:28:00.666Z,1.66
2022-09-07T22:30:27.550Z,1.71
2022-09-07T22:32:54.163Z,1.46
2022-09-07T22:35:21.475Z,1.49
2022-09-07T22:37:48.149Z,1.31
2022-09-07T22:40:14.988Z,1.58
2022-09-07T22:42:41.778Z,1.32
2022-09-07T22:45:09.279Z,1.31
2022-09-07T22:47:35.852Z,1.27
2022-09-07T22:50:02.434Z,1.36
2022-09-07T22:52:28.986Z,1.48
2022-09-07T22:54:55.554Z,1.85
2022-09-07T22:57:22.070Z,2.21
2022-09-07T22:59:48.621Z,1.89
2022-09-07T23:02:15.263Z,1.55
2022-09-07T23:04:41.889Z,1.57
2022-09-07T23:07:08.577Z,1.55
2022-09-07T23:09:35.177Z,1.41
2022-09-07T23:12:01.867Z,1.34
2022-09-07T23:14:28.378Z,1.48
2022-09-07T23:16:54.999Z,1.28
2022-09-07T23:19:21.520Z,1.08
2022-09-07T23:21:48.064Z,1.23
2022-09-07T23:24:16.728Z,1.24
2022-09-07T23:26:43.554Z,1.35
2022-09-07T23:29:12.423Z,1.39
2022-09-07T23:31:39.179Z,1.40
2022-09-07T23:34:06.501Z,1.32
2022-09-07T23:36:33.393Z,1.17
2022-09-07T23:39:00.487Z,1.39
2022-09-07T23:41:27.505Z,1.34
2022-09-07T23:43:55.225Z,1.48
2022-09-07T23:46:22.505Z,1.36
2022-09-07T23:48:49.408Z,1.21
2022-09-07T23:51:19.942Z,1.31
2022-09-07T23:53:48.391Z,1.28
2022-09-07T23:56:14.948Z,1.25
2022-09-07T23:58:41.477Z,1.08
